createdAt,value
2019-04-26T00:02:13.089Z,55.80
2019-04-26T00:04:45.082Z,55.80
2019-04-26T00:07:16.626Z,55.76
2019-04-26T00:09:48.026Z,55.87
2019-04-26T00:12:20.766Z,55.89
2019-04-26T00:14:53.403Z,56.36
2019-04-26T00:17:26.235Z,56.18
2019-04-26T00:19:57.422Z,56.12
2019-04-26T00:22:29.161Z,56.07
2019-04-26T00:25:00.177Z,55.87
2019-04-26T00:27:31.209Z,55.57
2019-04-26T00:30:01.898Z,55.54
2019-04-26T00:32:33.178Z,55.27
2019-04-26T00:35:04.424Z,55.33
2019-04-26T00:37:35.696Z,54.65
2019-04-26T00:40:07.672Z,54.47
2019-04-26T00:42:38.539Z,54.54
2019-04-26T00:45:09.541Z,54.60
2019-04-26T00:47:40.672Z,55.08
2019-04-26T00:50:13.766Z,55.13
2019-04-26T00:52:45.696Z,54.93
2019-04-26T00:55:17.699Z,54.41
2019-04-26T00:57:49.392Z,54.54
2019-04-26T01:00:21.832Z,54.87
2019-04-26T01:02:54.374Z,54.98
2019-04-26T01:05:25.293Z,55.18
2019-04-26T01:07:57.918Z,55.30
2019-04-26T01:10:28.747Z,55.18
2019-04-26T01:12:59.411Z,55.37
2019-04-26T01:15:30.107Z,55.34
2019-04-26T01:18:01.033Z,55.26
2019-04-26T01:20:35.116Z,55.45
2019-04-26T01:23:09.994Z,55.23
2019-04-26T01:25:51.103Z,55.38
2019-04-26T01:28:46.967Z,55.37
2019-04-26T01:31:18.632Z,55.48
2019-04-26T01:33:50.385Z,55.49
2019-04-26T01:36:22.620Z,55.54
2019-04-26T01:38:58.144Z,55.70
2019-04-26T01:41:40.666Z,55.93
2019-04-26T01:44:13.393Z,56.02
2019-04-26T01:46:47.006Z,56.13
2019-04-26T01:49:22.774Z,55.92
2019-04-26T01:52:13.126Z,56.10
2019-04-26T01:54:46.860Z,56.34
2019-04-26T01:57:18.130Z,56.63
2019-04-26T01:59:55.115Z,56.66
2019-04-26T02:02:28.396Z,56.85
2019-04-26T02:05:07.008Z,56.79
2019-04-26T02:07:40.992Z,56.96
2019-04-26T02:10:18.078Z,57.31
2019-04-26T02:12:50.808Z,57.37
2019-04-26T02:15:33.358Z,57.54
2019-04-26T02:18:05.089Z,57.79
2019-04-26T02:21:12.107Z,57.93
2019-04-26T02:23:53.517Z,57.80
2019-04-26T02:26:44.453Z,57.93
2019-04-26T02:29:22.280Z,58.06
2019-04-26T02:32:03.101Z,58.37
2019-04-26T02:34:37.674Z,58.42
2019-04-26T02:37:13.667Z,58.40
2019-04-26T02:39:44.912Z,58.72
2019-04-26T02:42:30.964Z,58.80
2019-04-26T02:45:20.398Z,58.81
2019-04-26T02:47:57.310Z,59.02
2019-04-26T02:50:34.936Z,58.99
2019-04-26T02:53:18.826Z,58.87
2019-04-26T02:56:10.603Z,59.05
2019-04-26T02:58:57.683Z,59.17
2019-04-26T03:01:31.881Z,59.46
2019-04-26T03:04:02.210Z,59.36
2019-04-26T03:06:36.651Z,59.43
2019-04-26T03:09:08.124Z,59.28
2019-04-26T03:11:48.839Z,59.00
2019-04-26T03:14:20.020Z,59.60
2019-04-26T03:16:56.948Z,59.57
2019-04-26T03:20:05.369Z,59.64
2019-04-26T03:22:52.280Z,59.70
2019-04-26T03:25:42.274Z,59.64
2019-04-26T03:28:37.655Z,59.68
2019-04-26T03:31:27.764Z,59.95
2019-04-26T03:34:19.719Z,60.11
2019-04-26T03:37:28.218Z,60.17
2019-04-26T03:40:19.849Z,60.21
2019-04-26T03:43:20.652Z,59.97
2019-04-26T03:46:34.867Z,59.86
2019-04-26T03:49:30.866Z,59.48
2019-04-26T03:52:40.120Z,59.59
2019-04-26T03:55:28.194Z,59.37
2019-04-26T03:58:26.639Z,59.42
2019-04-26T04:01:12.198Z,59.76
2019-04-26T04:04:03.204Z,59.75
2019-04-26T04:06:56.705Z,59.51
2019-04-26T04:09:11.066Z,59.76
2019-04-26T04:11:50.691Z,59.68
2019-04-26T04:14:48.124Z,59.04
2019-04-26T04:17:32.929Z,59.08
2019-04-26T04:20:41.032Z,59.06
2019-04-26T04:23:31.284Z,58.75
2019-04-26T04:26:06.374Z,58.77
2019-04-26T04:29:19.455Z,58.58
2019-04-26T04:31:54.711Z,58.19
2019-04-26T04:34:38.090Z,57.88
2019-04-26T04:37:13.371Z,57.57
2019-04-26T04:40:11.276Z,57.54
2019-04-26T04:43:02.767Z,57.39
2019-04-26T04:46:05.414Z,57.42
2019-04-26T04:48:53.210Z,57.30
2019-04-26T04:51:28.953Z,57.21
2019-04-26T04:54:16.547Z,57.18
2019-04-26T04:57:23.648Z,56.88
2019-04-26T05:00:18.444Z,56.74
2019-04-26T05:03:35.042Z,56.83
2019-04-26T05:06:36.306Z,56.69
2019-04-26T05:09:10.928Z,56.54
2019-04-26T05:12:10.431Z,56.46
2019-04-26T05:15:05.290Z,56.80
2019-04-26T05:18:00.207Z,56.13
2019-04-26T05:21:16.528Z,56.08
2019-04-26T05:24:22.939Z,55.98
2019-04-26T05:27:02.690Z,55.18
2019-04-26T05:29:59.118Z,54.82
2019-04-26T05:32:52.557Z,54.70
2019-04-26T05:35:53.095Z,54.45
2019-04-26T05:38:55.372Z,54.01
2019-04-26T05:42:03.989Z,53.45
2019-04-26T05:45:21.621Z,52.47
2019-04-26T05:48:50.907Z,52.14
2019-04-26T05:52:02.160Z,51.12
2019-04-26T05:55:21.706Z,50.47
2019-04-26T05:58:09.839Z,49.98
2019-04-26T06:01:13.704Z,50.19
2019-04-26T06:04:22.375Z,49.42
2019-04-26T06:07:24.733Z,49.29
2019-04-26T06:10:07.925Z,48.94
2019-04-26T06:12:56.617Z,48.55
2019-04-26T06:15:45.210Z,48.03
2019-04-26T06:18:30.675Z,47.73
2019-04-26T06:21:25.355Z,47.59
2019-04-26T06:24:34.303Z,48.14
2019-04-26T06:27:23.539Z,47.11
2019-04-26T06:30:19.485Z,47.41
2019-04-26T06:33:26.437Z,46.94
2019-04-26T06:36:02.259Z,47.23
2019-04-26T06:39:04.112Z,46.65
2019-04-26T06:42:11.869Z,46.73
2019-04-26T06:45:20.762Z,46.31
2019-04-26T06:48:18.524Z,47.19
2019-04-26T06:51:05.016Z,47.69
2019-04-26T06:53:58.588Z,49.13
2019-04-26T06:56:48.051Z,48.64
2019-04-26T06:59:48.562Z,48.31
2019-04-26T07:02:38.791Z,47.60
2019-04-26T07:05:34.459Z,47.48
2019-04-26T07:08:27.196Z,47.95
2019-04-26T07:11:43.718Z,47.39
2019-04-26T07:15:03.708Z,46.64
2019-04-26T07:17:57.202Z,46.64
2019-04-26T07:20:34.767Z,46.78
2019-04-26T07:23:50.344Z,45.52
2019-04-26T07:26:52.827Z,44.79
2019-04-26T07:29:45.392Z,44.29
2019-04-26T07:32:46.524Z,44.87
2019-04-26T07:35:46.476Z,43.73
2019-04-26T07:38:52.159Z,44.04
2019-04-26T07:41:40.739Z,43.99
2019-04-26T07:44:25.998Z,44.63
2019-04-26T07:47:36.358Z,44.50
2019-04-26T07:50:34.144Z,44.26
2019-04-26T07:53:36.985Z,44.32
2019-04-26T07:56:18.648Z,43.64
2019-04-26T07:59:46.530Z,43.09
2019-04-26T08:02:48.260Z,42.85
2019-04-26T08:05:39.886Z,40.75
2019-04-26T08:08:15.219Z,40.32
2019-04-26T08:11:06.198Z,39.77
2019-04-26T08:13:57.791Z,40.82
2019-04-26T08:16:43.711Z,40.20
2019-04-26T08:19:25.286Z,39.76
2019-04-26T08:22:11.474Z,39.18
2019-04-26T08:24:35.154Z,38.93
2019-04-26T08:27:23.679Z,38.59
2019-04-26T08:29:56.441Z,38.31
2019-04-26T08:32:33.248Z,36.77
2019-04-26T08:35:15.966Z,36.96
2019-04-26T08:37:55.123Z,36.25
2019-04-26T08:40:30.897Z,34.83
2019-04-26T08:43:22.584Z,33.42
2019-04-26T08:46:06.038Z,32.75
2019-04-26T08:48:46.357Z,32.45
2019-04-26T08:51:22.280Z,31.26
2019-04-26T08:53:56.751Z,30.47
2019-04-26T08:56:38.299Z,29.59
2019-04-26T08:59:26.765Z,28.81
2019-04-26T09:02:17.334Z,28.71
2019-04-26T09:05:08.509Z,30.89
2019-04-26T09:07:44.066Z,31.39
2019-04-26T09:10:18.938Z,32.60
2019-04-26T09:12:53.495Z,32.46
2019-04-26T09:15:44.369Z,32.77
2019-04-26T09:18:16.016Z,32.50
2019-04-26T09:20:46.717Z,31.94
2019-04-26T09:23:19.305Z,31.48
2019-04-26T09:25:58.995Z,32.09
2019-04-26T09:28:32.152Z,31.59
2019-04-26T09:31:07.378Z,32.86
2019-04-26T09:33:42.425Z,33.19
2019-04-26T09:36:13.335Z,33.53
2019-04-26T09:38:45.872Z,33.11
2019-04-26T09:41:16.848Z,32.50
2019-04-26T09:43:49.463Z,33.11
2019-04-26T09:46:21.793Z,33.03
2019-04-26T09:48:55.515Z,32.00
2019-04-26T09:51:26.711Z,31.44
2019-04-26T09:53:57.715Z,31.47
2019-04-26T09:56:28.669Z,30.64
2019-04-26T09:59:01.495Z,29.21
2019-04-26T10:01:32.930Z,29.36
2019-04-26T10:04:04.057Z,28.74
2019-04-26T10:06:35.056Z,28.30
2019-04-26T10:09:17.421Z,27.64
2019-04-26T10:11:53.141Z,27.31
2019-04-26T10:14:28.847Z,28.40
2019-04-26T10:17:01.140Z,27.53
2019-04-26T10:19:33.432Z,28.22
2019-04-26T10:22:04.272Z,28.70
2019-04-26T10:24:35.109Z,28.62
2019-04-26T10:27:05.938Z,28.79
2019-04-26T10:29:37.088Z,28.78
2019-04-26T10:32:08.031Z,29.35
2019-04-26T10:34:42.809Z,28.80
2019-04-26T10:37:11.628Z,28.52
2019-04-26T10:39:42.600Z,29.28
2019-04-26T10:42:13.507Z,29.43
2019-04-26T10:44:44.486Z,28.08
2019-04-26T10:47:15.790Z,28.38
2019-04-26T10:49:49.829Z,29.02
2019-04-26T10:52:22.113Z,28.29
2019-04-26T10:55:16.122Z,27.93
2019-04-26T10:57:46.890Z,29.10
2019-04-26T11:00:23.365Z,28.38
2019-04-26T11:02:54.081Z,28.20
2019-04-26T11:05:26.767Z,29.33
2019-04-26T11:07:57.452Z,28.66
2019-04-26T11:10:29.180Z,29.86
2019-04-26T11:13:00.106Z,29.75
2019-04-26T11:15:32.669Z,30.95
2019-04-26T11:18:03.828Z,31.65
2019-04-26T11:20:34.734Z,32.64
2019-04-26T11:23:08.172Z,33.31
2019-04-26T11:25:38.281Z,33.38
2019-04-26T11:28:09.332Z,32.81
2019-04-26T11:30:40.215Z,32.74
2019-04-26T11:33:12.666Z,32.69
2019-04-26T11:35:43.306Z,32.13
2019-04-26T11:38:14.239Z,31.31
2019-04-26T11:40:49.791Z,30.89
2019-04-26T11:43:19.540Z,31.23
2019-04-26T11:45:50.511Z,30.25
2019-04-26T11:48:21.686Z,31.65
2019-04-26T11:50:53.642Z,30.57
2019-04-26T11:53:24.427Z,29.90
2019-04-26T11:55:55.177Z,28.82
2019-04-26T11:58:25.836Z,29.69
2019-04-26T12:00:58.135Z,29.08
2019-04-26T12:03:28.811Z,29.65
2019-04-26T12:06:01.128Z,30.00
2019-04-26T12:08:48.318Z,29.91
2019-04-26T12:11:25.798Z,31.34
2019-04-26T12:13:51.351Z,31.95
2019-04-26T12:16:22.306Z,31.97
2019-04-26T12:18:52.975Z,32.51
2019-04-26T12:21:23.656Z,33.21
2019-04-26T12:23:55.523Z,34.41
2019-04-26T12:26:27.028Z,34.54
2019-04-26T12:28:57.932Z,33.83
2019-04-26T12:31:28.638Z,34.02
2019-04-26T12:33:59.608Z,34.40
2019-04-26T12:36:30.566Z,34.98
2019-04-26T12:39:02.249Z,34.95
2019-04-26T12:41:40.251Z,35.53
2019-04-26T12:44:08.150Z,36.17
2019-04-26T12:46:59.414Z,36.54
2019-04-26T12:49:29.103Z,37.02
2019-04-26T12:51:59.766Z,36.78
2019-04-26T12:54:31.554Z,36.12
2019-04-26T12:57:05.955Z,37.08
2019-04-26T12:59:44.079Z,37.19
2019-04-26T13:02:07.080Z,37.22
2019-04-26T13:04:40.607Z,37.06
2019-04-26T13:07:22.763Z,36.46
2019-04-26T13:10:02.245Z,36.70
2019-04-26T13:12:40.497Z,36.56
2019-04-26T13:15:46.365Z,36.47
2019-04-26T13:18:18.572Z,36.77
2019-04-26T13:20:49.273Z,37.09
2019-04-26T13:23:20.240Z,37.62
2019-04-26T13:25:50.881Z,38.18
2019-04-26T13:28:21.902Z,38.43
2019-04-26T13:30:52.549Z,38.31
2019-04-26T13:33:27.371Z,39.11
2019-04-26T13:36:03.850Z,39.54
2019-04-26T13:38:29.138Z,39.61
2019-04-26T13:41:04.601Z,39.73
2019-04-26T13:43:33.300Z,40.26
2019-04-26T13:46:20.749Z,40.93
2019-04-26T13:48:53.049Z,39.75
2019-04-26T13:51:34.615Z,40.45
2019-04-26T13:54:06.396Z,39.17
2019-04-26T13:56:37.632Z,39.94
2019-04-26T13:59:09.065Z,39.18
2019-04-26T14:01:39.804Z,39.02
2019-04-26T14:04:11.391Z,38.99
2019-04-26T14:06:42.075Z,39.07
2019-04-26T14:09:14.410Z,39.01
2019-04-26T14:11:45.322Z,40.10
2019-04-26T14:14:16.290Z,39.53
2019-04-26T14:16:47.183Z,40.05
2019-04-26T14:19:17.886Z,39.33
2019-04-26T14:21:48.727Z,39.87
2019-04-26T14:24:23.878Z,40.09
2019-04-26T14:27:00.790Z,39.50
2019-04-26T14:29:33.887Z,39.87
2019-04-26T14:32:04.766Z,39.91
2019-04-26T14:34:36.287Z,40.22
2019-04-26T14:37:11.033Z,40.48
2019-04-26T14:39:50.091Z,40.79
2019-04-26T14:42:12.814Z,41.09
2019-04-26T14:44:49.605Z,41.11
2019-04-26T14:47:17.977Z,41.52
2019-04-26T14:49:48.498Z,41.07
2019-04-26T14:52:19.705Z,41.85
2019-04-26T14:54:50.787Z,41.03
2019-04-26T14:57:26.749Z,41.03
2019-04-26T14:59:58.147Z,40.93
2019-04-26T15:02:28.658Z,40.73
2019-04-26T15:05:12.811Z,41.02
2019-04-26T15:07:51.120Z,41.83
2019-04-26T15:10:16.937Z,42.02
2019-04-26T15:12:52.647Z,41.57
2019-04-26T15:15:20.481Z,40.82
2019-04-26T15:17:53.635Z,41.82
2019-04-26T15:20:24.544Z,42.21
2019-04-26T15:22:55.200Z,42.36
2019-04-26T15:25:26.123Z,42.98
2019-04-26T15:27:57.091Z,43.04
2019-04-26T15:30:27.729Z,42.89
2019-04-26T15:32:58.680Z,43.14
2019-04-26T15:35:34.198Z,43.21
2019-04-26T15:38:02.490Z,43.85
2019-04-26T15:40:42.493Z,44.16
2019-04-26T15:43:20.627Z,44.14
2019-04-26T15:45:53.044Z,44.18
2019-04-26T15:48:26.176Z,44.29
2019-04-26T15:50:57.647Z,43.98
2019-04-26T15:53:28.544Z,44.15
2019-04-26T15:55:59.227Z,44.58
2019-04-26T15:58:29.881Z,44.42
2019-04-26T16:01:00.698Z,44.45
2019-04-26T16:03:32.783Z,44.27
2019-04-26T16:06:07.004Z,44.77
2019-04-26T16:08:42.514Z,45.32
2019-04-26T16:11:11.364Z,45.59
2019-04-26T16:13:45.163Z,45.89
2019-04-26T16:16:16.465Z,46.54
2019-04-26T16:18:55.554Z,46.48
2019-04-26T16:21:23.717Z,46.51
2019-04-26T16:23:55.439Z,46.71
2019-04-26T16:26:27.254Z,47.16
2019-04-26T16:29:03.501Z,47.48
2019-04-26T16:31:42.057Z,47.75
2019-04-26T16:34:15.820Z,48.20
2019-04-26T16:36:46.755Z,48.38
2019-04-26T16:39:17.911Z,48.41
2019-04-26T16:41:49.264Z,48.69
2019-04-26T16:44:29.598Z,48.87
2019-04-26T16:47:01.334Z,48.84
2019-04-26T16:49:35.125Z,48.95
2019-04-26T16:52:07.106Z,49.24
2019-04-26T16:54:38.033Z,49.50
2019-04-26T16:57:11.377Z,49.68
2019-04-26T16:59:47.677Z,49.89
2019-04-26T17:02:16.219Z,50.17
2019-04-26T17:04:49.944Z,50.37
2019-04-26T17:07:25.376Z,50.53
2019-04-26T17:09:58.959Z,50.48
2019-04-26T17:12:26.024Z,51.15
2019-04-26T17:14:57.038Z,51.71
2019-04-26T17:17:27.771Z,51.88
2019-04-26T17:19:59.029Z,52.57
2019-04-26T17:22:42.546Z,53.27
2019-04-26T17:25:24.444Z,54.25
2019-04-26T17:27:54.657Z,54.85
2019-04-26T17:30:34.477Z,55.33
2019-04-26T17:33:04.099Z,56.21
2019-04-26T17:35:40.720Z,56.76
2019-04-26T17:38:11.466Z,57.24
2019-04-26T17:40:41.588Z,57.06
2019-04-26T17:43:13.462Z,57.15
2019-04-26T17:45:44.761Z,56.79
2019-04-26T17:48:16.490Z,57.77
2019-04-26T17:50:47.633Z,60.17
2019-04-26T17:53:28.188Z,61.62
2019-04-26T17:55:54.628Z,62.66
2019-04-26T17:58:31.054Z,64.23
2019-04-26T18:01:01.053Z,66.92
2019-04-26T18:03:29.812Z,67.11
2019-04-26T18:06:02.273Z,69.09
2019-04-26T18:08:41.087Z,69.46
2019-04-26T18:11:18.386Z,70.52
2019-04-26T18:13:47.182Z,72.01
2019-04-26T18:16:17.755Z,72.76
2019-04-26T18:19:02.471Z,73.97
2019-04-26T18:21:59.628Z,75.52
2019-04-26T18:24:27.578Z,76.46
2019-04-26T18:27:00.621Z,78.12
2019-04-26T18:29:33.699Z,79.06
2019-04-26T18:32:04.937Z,80.17
2019-04-26T18:34:40.237Z,80.02
2019-04-26T18:37:09.231Z,80.21
2019-04-26T18:39:40.709Z,81.37
2019-04-26T18:42:13.842Z,83.50
2019-04-26T18:44:48.766Z,83.56
2019-04-26T18:47:27.459Z,84.00
2019-04-26T18:49:58.325Z,83.89
2019-04-26T18:52:28.695Z,84.88
2019-04-26T18:55:05.507Z,84.65
2019-04-26T18:57:39.501Z,85.00
2019-04-26T19:00:14.357Z,85.33
2019-04-26T19:02:48.383Z,85.51
2019-04-26T19:05:23.828Z,85.73
2019-04-26T19:07:52.277Z,86.15
2019-04-26T19:10:25.830Z,85.96
2019-04-26T19:13:07.330Z,86.35
2019-04-26T19:15:53.351Z,85.32
2019-04-26T19:18:42.437Z,85.24
2019-04-26T19:21:14.829Z,84.80
2019-04-26T19:23:45.608Z,84.55
2019-04-26T19:26:32.427Z,84.49
2019-04-26T19:28:54.389Z,85.09
2019-04-26T19:31:27.106Z,85.49
2019-04-26T19:33:57.772Z,84.57
2019-04-26T19:36:29.368Z,84.20
2019-04-26T19:39:01.014Z,82.15
2019-04-26T19:41:33.535Z,79.68
2019-04-26T19:44:06.610Z,80.21
2019-04-26T19:46:45.385Z,81.28
2019-04-26T19:49:33.242Z,81.21
2019-04-26T19:52:22.047Z,82.02
2019-04-26T19:55:11.522Z,82.18
2019-04-26T19:58:01.813Z,82.92
2019-04-26T20:00:32.557Z,82.39
2019-04-26T20:03:03.406Z,83.19
2019-04-26T20:05:36.305Z,83.61
2019-04-26T20:08:07.822Z,83.26
2019-04-26T20:10:44.712Z,83.55
2019-04-26T20:13:16.501Z,84.02
2019-04-26T20:15:49.357Z,83.93
2019-04-26T20:18:21.397Z,85.21
2019-04-26T20:20:54.571Z,85.77
2019-04-26T20:23:25.944Z,86.41
2019-04-26T20:26:06.106Z,86.88
2019-04-26T20:28:34.313Z,86.58
2019-04-26T20:31:07.690Z,87.00
2019-04-26T20:33:39.107Z,87.47
2019-04-26T20:36:12.717Z,87.61
2019-04-26T20:38:47.418Z,87.19
2019-04-26T20:41:17.740Z,87.21
2019-04-26T20:44:04.426Z,87.52
2019-04-26T20:46:29.696Z,87.26
2019-04-26T20:49:07.923Z,87.96
2019-04-26T20:51:35.030Z,87.94
2019-04-26T20:54:06.112Z,88.96
2019-04-26T20:56:37.127Z,88.93
2019-04-26T20:59:08.170Z,88.56
2019-04-26T21:01:43.627Z,87.34
2019-04-26T21:04:34.988Z,88.28
2019-04-26T21:06:54.891Z,88.64
2019-04-26T21:09:26.538Z,88.64
2019-04-26T21:11:57.631Z,89.04
2019-04-26T21:14:28.423Z,89.24
2019-04-26T21:16:59.848Z,88.05
2019-04-26T21:19:32.744Z,87.08
2019-04-26T21:22:03.559Z,87.24
2019-04-26T21:24:36.928Z,88.13
2019-04-26T21:27:26.057Z,87.64
2019-04-26T21:30:07.398Z,87.94
2019-04-26T21:32:40.769Z,87.55
2019-04-26T21:35:13.636Z,86.74
2019-04-26T21:37:49.455Z,86.82
2019-04-26T21:40:26.016Z,85.90
2019-04-26T21:42:59.249Z,85.81
2019-04-26T21:45:30.886Z,85.58
2019-04-26T21:48:02.606Z,86.64
2019-04-26T21:50:38.667Z,86.60
2019-04-26T21:53:07.159Z,85.62
2019-04-26T21:55:38.951Z,85.97
2019-04-26T21:58:09.650Z,86.61
2019-04-26T22:00:48.933Z,85.41
2019-04-26T22:03:21.412Z,85.82
2019-04-26T22:05:52.110Z,86.09
2019-04-26T22:08:25.701Z,86.09
2019-04-26T22:10:58.330Z,85.92
2019-04-26T22:13:41.576Z,85.85
2019-04-26T22:16:29.309Z,85.19
2019-04-26T22:19:04.832Z,85.49
2019-04-26T22:21:44.345Z,85.62
2019-04-26T22:24:35.137Z,84.93
2019-04-26T22:27:06.103Z,85.06
2019-04-26T22:29:37.033Z,83.98
2019-04-26T22:32:11.548Z,83.80
2019-04-26T22:34:41.395Z,83.96
2019-04-26T22:37:14.812Z,84.56
2019-04-26T22:39:45.436Z,84.72
2019-04-26T22:42:18.337Z,84.10
2019-04-26T22:44:53.908Z,84.53
2019-04-26T22:47:40.832Z,83.50
2019-04-26T22:50:13.989Z,83.07
2019-04-26T22:52:46.691Z,83.36
2019-04-26T22:55:24.024Z,83.47
2019-04-26T22:57:53.039Z,83.24
2019-04-26T23:18:13.751Z,83.04
2019-04-26T23:20:59.055Z,83.23
2019-04-26T23:23:30.261Z,83.51
2019-04-26T23:26:06.176Z,82.36
2019-04-26T23:28:39.225Z,83.26
2019-04-26T23:31:10.432Z,82.94
2019-04-26T23:33:42.831Z,83.39
2019-04-26T23:36:18.451Z,82.81
2019-04-26T23:38:47.579Z,82.92
2019-04-26T23:41:18.263Z,82.86
2019-04-26T23:43:49.312Z,82.56
2019-04-26T23:46:22.852Z,82.51
2019-04-26T23:48:53.867Z,82.16
2019-04-26T23:51:26.183Z,82.05
2019-04-26T23:53:57.956Z,82.33
2019-04-26T23:56:30.961Z,82.24
2019-04-26T23:59:03.486Z,81.93
